Time,TemperatureF,DewpointF,PressureIn,WindDirection,WindDirectionDegrees,WindSpeedMPH,WindSpeedGustMPH,Humidity,HourlyPrecipIn,Conditions,Clouds,dailyrainin,SoftwareType,DateUTC
2013-07-13 00:02:00,66.0,60.4,30.11,ENE,67,0.0,0.0,82,0.00,,,0.00,WUHU21623XXSP,2013-07-13 05:02:00,
2013-07-13 00:07:00,65.8,60.5,30.10,ENE,67,0.0,0.0,83,0.00,,,0.00,WUHU21623XXSP,2013-07-13 05:07:00,
2013-07-13 00:12:00,65.5,60.2,30.10,ENE,67,0.0,0.0,83,0.00,,,0.00,WUHU21623XXSP,2013-07-13 05:12:00,
2013-07-13 00:17:00,65.3,60.2,30.10,ENE,67,0.0,0.0,83,0.00,,,0.00,WUHU21623XXSP,2013-07-13 05:17:00,
2013-07-13 00:22:00,65.3,60.0,30.11,ENE,67,0.0,0.0,83,0.00,,,0.00,WUHU21623XXSP,2013-07-13 05:22:00,
2013-07-13 00:27:00,64.9,59.6,30.10,ENE,67,0.0,0.0,83,0.00,,,0.00,WUHU21623XXSP,2013-07-13 05:27:00,
2013-07-13 00:32:00,64.8,59.8,30.10,ENE,67,0.0,0.0,84,0.00,,,0.00,WUHU21623XXSP,2013-07-13 05:32:00,
2013-07-13 00:37:00,64.6,59.8,30.11,ENE,67,0.0,0.0,84,0.00,,,0.00,WUHU21623XXSP,2013-07-13 05:37:00,
2013-07-13 00:42:00,64.4,59.6,30.10,ENE,67,0.0,0.0,85,0.00,,,0.00,WUHU21623XXSP,2013-07-13 05:42:00,
2013-07-13 00:47:00,64.2,59.6,30.10,ENE,67,0.0,0.0,85,0.00,,,0.00,WUHU21623XXSP,2013-07-13 05:47:00,
2013-07-13 00:52:00,64.0,59.5,30.10,ENE,67,0.0,0.0,85,0.00,,,0.00,WUHU21623XXSP,2013-07-13 05:52:00,
2013-07-13 00:57:00,63.7,59.4,30.10,ENE,67,0.0,0.0,86,0.00,,,0.00,WUHU21623XXSP,2013-07-13 05:57:00,
2013-07-13 01:02:00,63.7,59.4,30.10,ENE,67,0.0,0.0,86,0.00,,,0.00,WUHU21623XXSP,2013-07-13 06:02:00,
2013-07-13 01:10:00,63.7,59.4,30.10,ENE,67,0.0,0.0,86,0.00,,,0.00,WUHU21623XXSP,2013-07-13 06:10:00,
2013-07-13 01:15:00,63.3,59.1,30.10,ENE,67,0.0,0.0,86,0.00,,,0.00,WUHU21623XXSP,2013-07-13 06:15:00,
2013-07-13 01:20:00,63.1,58.9,30.11,ENE,67,0.0,0.0,86,0.00,,,0.00,WUHU21623XXSP,2013-07-13 06:20:00,
2013-07-13 01:25:00,63.0,58.7,30.11,ENE,67,0.0,0.0,86,0.00,,,0.00,WUHU21623XXSP,2013-07-13 06:25:00,
2013-07-13 01:30:00,62.8,58.9,30.11,ENE,67,0.0,0.0,87,0.00,,,0.00,WUHU21623XXSP,2013-07-13 06:30:00,
2013-07-13 01:35:00,62.8,58.9,30.11,ENE,67,0.0,0.0,87,0.00,,,0.00,WUHU21623XXSP,2013-07-13 06:35:00,
2013-07-13 01:40:00,62.6,58.7,30.11,ENE,67,0.0,0.0,87,0.00,,,0.00,WUHU21623XXSP,2013-07-13 06:40:00,
2013-07-13 01:45:00,62.4,58.5,30.11,ENE,67,0.0,0.0,87,0.00,,,0.00,WUHU21623XXSP,2013-07-13 06:45:00,
2013-07-13 01:50:00,62.4,58.5,30.11,ENE,67,0.0,0.0,87,0.00,,,0.00,WUHU21623XXSP,2013-07-13 06:50:00,
2013-07-13 01:55:00,62.2,58.3,30.11,ENE,67,0.0,0.0,87,0.00,,,0.00,WUHU21623XXSP,2013-07-13 06:55:00,
2013-07-13 02:00:00,62.2,58.3,30.11,ENE,67,0.0,0.0,87,0.00,,,0.00,WUHU21623XXSP,2013-07-13 07:00:00,
2013-07-13 02:05:00,62.1,58.5,30.11,ENE,67,0.0,0.0,88,0.00,,,0.00,WUHU21623XXSP,2013-07-13 07:05:00,
2013-07-13 02:10:00,62.1,58.5,30.11,ENE,67,0.0,0.0,88,0.00,,,0.00,WUHU21623XXSP,2013-07-13 07:10:00,
2013-07-13 02:15:00,62.1,58.5,30.11,ENE,67,0.0,0.0,88,0.00,,,0.00,WUHU21623XXSP,2013-07-13 07:15:00,
2013-07-13 02:20:00,61.9,58.3,30.11,ENE,67,0.0,0.0,88,0.00,,,0.00,WUHU21623XXSP,2013-07-13 07:20:00,
2013-07-13 02:25:00,61.7,58.2,30.12,ENE,67,0.0,0.0,88,0.00,,,0.00,WUHU21623XXSP,2013-07-13 07:25:00,
2013-07-13 02:30:00,61.5,58.0,30.12,ENE,67,0.0,0.0,88,0.00,,,0.00,WUHU21623XXSP,2013-07-13 07:30:00,
2013-07-13 02:35:00,61.3,57.8,30.12,ENE,67,0.0,0.0,88,0.00,,,0.00,WUHU21623XXSP,2013-07-13 07:35:00,
2013-07-13 02:40:00,61.2,57.6,30.12,ENE,67,0.0,0.0,88,0.00,,,0.00,WUHU21623XXSP,2013-07-13 07:40:00,
2013-07-13 02:45:00,61.2,57.6,30.12,ENE,67,0.0,0.0,88,0.00,,,0.00,WUHU21623XXSP,2013-07-13 07:45:00,
2013-07-13 02:50:00,61.2,57.6,30.12,ENE,67,0.0,0.0,88,0.00,,,0.00,WUHU21623XXSP,2013-07-13 07:50:00,
2013-07-13 02:55:00,61.0,57.4,30.13,ENE,67,0.0,0.0,88,0.00,,,0.00,WUHU21623XXSP,2013-07-13 07:55:00,
2013-07-13 03:00:00,61.0,57.4,30.13,ENE,67,0.0,0.0,88,0.00,,,0.00,WUHU21623XXSP,2013-07-13 08:00:00,
2013-07-13 03:05:00,61.0,57.4,30.13,ENE,67,0.0,0.0,88,0.00,,,0.00,WUHU21623XXSP,2013-07-13 08:05:00,
2013-07-13 03:10:00,61.0,57.4,30.13,ENE,67,0.0,0.0,88,0.00,,,0.00,WUHU21623XXSP,2013-07-13 08:10:00,
2013-07-13 03:15:00,61.0,57.4,30.13,ENE,67,0.0,0.0,88,0.00,,,0.00,WUHU21623XXSP,2013-07-13 08:15:00,
2013-07-13 03:20:00,60.8,57.4,30.13,ENE,67,0.0,0.0,88,0.00,,,0.00,WUHU21623XXSP,2013-07-13 08:20:00,
2013-07-13 03:25:00,60.6,57.1,30.13,ENE,67,0.0,0.0,88,0.00,,,0.00,WUHU21623XXSP,2013-07-13 08:25:00,
2013-07-13 03:30:00,60.6,57.1,30.13,ENE,67,0.0,0.0,88,0.00,,,0.00,WUHU21623XXSP,2013-07-13 08:30:00,
2013-07-13 03:35:00,60.4,56.9,30.13,ENE,67,0.0,0.0,88,0.00,,,0.00,WUHU21623XXSP,2013-07-13 08:35:00,
2013-07-13 03:40:00,60.4,56.9,30.13,ENE,67,0.0,0.0,88,0.00,,,0.00,WUHU21623XXSP,2013-07-13 08:40:00,
2013-07-13 03:45:00,60.4,56.9,30.13,ENE,67,0.0,0.0,88,0.00,,,0.00,WUHU21623XXSP,2013-07-13 08:45:00,
2013-07-13 03:50:00,60.6,57.1,30.13,ENE,67,0.0,0.0,88,0.00,,,0.00,WUHU21623XXSP,2013-07-13 08:50:00,
2013-07-13 03:55:00,60.6,57.1,30.13,ENE,67,0.0,0.0,88,0.00,,,0.00,WUHU21623XXSP,2013-07-13 08:55:00,
2013-07-13 04:00:00,60.4,56.9,30.13,ENE,67,0.0,0.0,88,0.00,,,0.00,WUHU21623XXSP,2013-07-13 09:00:00,
2013-07-13 04:05:00,60.4,56.9,30.12,ENE,67,0.0,0.0,88,0.00,,,0.00,WUHU21623XXSP,2013-07-13 09:05:00,
2013-07-13 04:10:00,60.4,56.9,30.13,ENE,67,0.0,0.0,88,0.00,,,0.00,WUHU21623XXSP,2013-07-13 09:10:00,
2013-07-13 04:16:00,60.4,56.9,30.13,ENE,67,0.0,0.0,88,0.00,,,0.00,WUHU21623XXSP,2013-07-13 09:16:00,
2013-07-13 04:21:00,60.1,56.6,30.13,ENE,67,0.0,0.0,88,0.00,,,0.00,WUHU21623XXSP,2013-07-13 09:21:00,
2013-07-13 04:26:00,60.1,56.6,30.12,ENE,67,0.0,0.0,88,0.00,,,0.00,WUHU21623XXSP,2013-07-13 09:26:00,
2013-07-13 04:31:00,60.1,56.6,30.12,ENE,67,0.0,0.0,88,0.00,,,0.00,WUHU21623XXSP,2013-07-13 09:31:00,
2013-07-13 04:36:00,60.1,56.6,30.12,ENE,67,0.0,0.0,88,0.00,,,0.00,WUHU21623XXSP,2013-07-13 09:36:00,
2013-07-13 04:41:00,60.1,56.6,30.12,ENE,67,0.0,0.0,88,0.00,,,0.00,WUHU21623XXSP,2013-07-13 09:41:00,
2013-07-13 04:46:00,59.7,56.2,30.13,ENE,67,0.0,0.0,88,0.00,,,0.00,WUHU21623XXSP,2013-07-13 09:46:00,
2013-07-13 04:51:00,59.5,56.0,30.12,ENE,67,0.0,0.0,88,0.00,,,0.00,WUHU21623XXSP,2013-07-13 09:51:00,
2013-07-13 04:56:00,59.5,56.0,30.13,ENE,67,0.0,0.0,88,0.00,,,0.00,WUHU21623XXSP,2013-07-13 09:56:00,
2013-07-13 05:01:00,59.5,56.0,30.13,ENE,67,0.0,0.0,88,0.00,,,0.00,WUHU21623XXSP,2013-07-13 10:01:00,
2013-07-13 05:06:00,59.5,56.0,30.13,ENE,67,0.0,0.0,88,0.00,,,0.00,WUHU21623XXSP,2013-07-13 10:06:00,
2013-07-13 05:11:00,59.4,55.8,30.14,ENE,67,0.0,0.0,88,0.00,,,0.00,WUHU21623XXSP,2013-07-13 10:11:00,
2013-07-13 05:12:00,59.4,55.8,30.13,ENE,67,0.0,0.0,88,0.00,,,0.00,WUHU21623XXSP,2013-07-13 10:12:00,
2013-07-13 05:17:00,59.0,55.5,30.13,ENE,67,0.0,0.0,88,0.00,,,0.00,WUHU21623XXSP,2013-07-13 10:17:00,
2013-07-13 05:22:00,58.8,55.3,30.13,ENE,67,0.0,0.0,88,0.00,,,0.00,WUHU21623XXSP,2013-07-13 10:22:00,
2013-07-13 05:27:00,58.8,55.3,30.13,ENE,67,0.0,0.0,88,0.00,,,0.00,WUHU21623XXSP,2013-07-13 10:27:00,
2013-07-13 05:32:00,58.8,55.3,30.13,ENE,67,0.0,0.0,88,0.00,,,0.00,WUHU21623XXSP,2013-07-13 10:32:00,
2013-07-13 05:37:00,58.8,55.3,30.13,ENE,67,0.0,0.0,88,0.00,,,0.00,WUHU21623XXSP,2013-07-13 10:37:00,
2013-07-13 05:42:00,58.8,55.3,30.13,ENE,67,0.0,0.0,88,0.00,,,0.00,WUHU21623XXSP,2013-07-13 10:42:00,
2013-07-13 05:47:00,58.8,55.3,30.13,ENE,67,0.0,0.0,88,0.00,,,0.00,WUHU21623XXSP,2013-07-13 10:47:00,
2013-07-13 05:52:00,58.8,55.3,30.13,ENE,67,0.0,0.0,88,0.00,,,0.00,WUHU21623XXSP,2013-07-13 10:52:00,
2013-07-13 05:57:00,59.2,55.7,30.13,ENE,67,0.0,0.0,88,0.00,,,0.00,WUHU21623XXSP,2013-07-13 10:57:00,
2013-07-13 06:02:00,59.5,55.8,30.13,ENE,67,0.0,0.0,88,0.00,,,0.00,WUHU21623XXSP,2013-07-13 11:02:00,
2013-07-13 06:07:00,59.7,55.9,30.13,ENE,67,0.0,0.0,87,0.00,,,0.00,WUHU21623XXSP,2013-07-13 11:07:00,
2013-07-13 06:12:00,60.4,56.6,30.13,ENE,67,0.0,0.0,87,0.00,,,0.00,WUHU21623XXSP,2013-07-13 11:12:00,
2013-07-13 06:17:00,60.6,57.1,30.12,ENE,67,0.0,0.0,87,0.00,,,0.00,WUHU21623XXSP,2013-07-13 11:17:00,
2013-07-13 06:22:00,61.0,57.1,30.12,ENE,67,0.0,0.0,87,0.00,,,0.00,WUHU21623XXSP,2013-07-13 11:22:00,
2013-07-13 06:27:00,61.9,57.8,30.12,ENE,67,0.0,0.0,87,0.00,,,0.00,WUHU21623XXSP,2013-07-13 11:27:00,
2013-07-13 06:32:00,62.2,58.5,30.12,ENE,67,0.0,0.0,88,0.00,,,0.00,WUHU21623XXSP,2013-07-13 11:32:00,
2013-07-13 06:37:00,62.8,59.2,30.13,ENE,67,0.0,0.0,88,0.00,,,0.00,WUHU21623XXSP,2013-07-13 11:37:00,
2013-07-13 06:42:00,63.3,59.6,30.13,ENE,67,0.0,0.0,88,0.00,,,0.00,WUHU21623XXSP,2013-07-13 11:42:00,
2013-07-13 06:47:00,63.5,59.8,30.13,ENE,67,0.0,0.0,88,0.00,,,0.00,WUHU21623XXSP,2013-07-13 11:47:00,
2013-07-13 06:52:00,64.6,60.7,30.14,ENE,67,0.0,0.0,87,0.00,,,0.00,WUHU21623XXSP,2013-07-13 11:52:00,
2013-07-13 06:57:00,65.1,60.8,30.14,ENE,67,0.0,0.0,86,0.00,,,0.00,WUHU21623XXSP,2013-07-13 11:57:00,
2013-07-13 07:02:00,64.9,60.2,30.14,ENE,67,0.0,0.0,84,0.00,,,0.00,WUHU21623XXSP,2013-07-13 12:02:00,
2013-07-13 07:07:00,65.5,60.2,30.14,ENE,67,0.0,0.0,84,0.00,,,0.00,WUHU21623XXSP,2013-07-13 12:07:00,
2013-07-13 07:12:00,65.8,60.8,30.15,ENE,67,0.0,0.0,84,0.00,,,0.00,WUHU21623XXSP,2013-07-13 12:12:00,
2013-07-13 07:17:00,66.0,61.0,30.15,ENE,67,0.0,0.0,84,0.00,,,0.00,WUHU21623XXSP,2013-07-13 12:17:00,
2013-07-13 07:22:00,66.6,61.1,30.15,ENE,67,0.0,0.0,83,0.00,,,0.00,WUHU21623XXSP,2013-07-13 12:22:00,
2013-07-13 07:27:00,66.9,61.6,30.15,ENE,67,0.0,0.0,83,0.00,,,0.00,WUHU21623XXSP,2013-07-13 12:27:00,
2013-07-13 07:32:00,67.8,62.0,30.15,ENE,67,0.0,0.0,82,0.00,,,0.00,WUHU21623XXSP,2013-07-13 12:32:00,
2013-07-13 07:37:00,68.7,62.3,30.15,ENE,67,0.0,0.0,80,0.00,,,0.00,WUHU21623XXSP,2013-07-13 12:37:00,
2013-07-13 07:42:00,69.1,62.1,30.15,ENE,67,0.0,0.0,79,0.00,,,0.00,WUHU21623XXSP,2013-07-13 12:42:00,
2013-07-13 07:47:00,69.4,62.1,30.15,ENE,67,0.0,0.0,78,0.00,,,0.00,WUHU21623XXSP,2013-07-13 12:47:00,
2013-07-13 07:52:00,70.5,62.9,30.15,ENE,67,0.0,0.0,77,0.00,,,0.00,WUHU21623XXSP,2013-07-13 12:52:00,
2013-07-13 07:57:00,71.2,63.3,30.14,ENE,67,0.0,0.0,77,0.00,,,0.00,WUHU21623XXSP,2013-07-13 12:57:00,
2013-07-13 08:02:00,71.2,62.9,30.14,SE,135,0.0,0.0,75,0.00,,,0.00,WUHU21623XXSP,2013-07-13 13:02:00,
2013-07-13 08:07:00,71.8,63.0,30.15,SSE,157,0.0,0.0,74,0.00,,,0.00,WUHU21623XXSP,2013-07-13 13:07:00,
2013-07-13 08:12:00,72.0,63.2,30.15,SSE,157,0.0,0.0,74,0.00,,,0.00,WUHU21623XXSP,2013-07-13 13:12:00,
2013-07-13 08:17:00,72.3,63.2,30.15,SSE,157,0.0,0.0,73,0.00,,,0.00,WUHU21623XXSP,2013-07-13 13:17:00,
2013-07-13 08:22:00,73.0,63.9,30.16,SSE,157,0.0,0.0,73,0.00,,,0.00,WUHU21623XXSP,2013-07-13 13:22:00,
2013-07-13 08:27:00,73.0,63.9,30.16,SSE,157,0.0,0.0,73,0.00,,,0.00,WUHU21623XXSP,2013-07-13 13:27:00,
2013-07-13 08:32:00,73.0,64.1,30.16,SE,135,0.0,0.0,73,0.00,,,0.00,WUHU21623XXSP,2013-07-13 13:32:00,
2013-07-13 08:37:00,72.9,63.4,30.16,ESE,112,0.0,0.0,73,0.00,,,0.00,WUHU21623XXSP,2013-07-13 13:37:00,
2013-07-13 08:42:00,73.2,63.7,30.16,East,90,0.0,0.0,72,0.00,,,0.00,WUHU21623XXSP,2013-07-13 13:42:00,
2013-07-13 08:47:00,73.4,63.9,30.16,East,90,0.0,0.0,72,0.00,,,0.00,WUHU21623XXSP,2013-07-13 13:47:00,
2013-07-13 08:52:00,73.9,63.8,30.16,East,90,0.0,4.0,71,0.00,,,0.00,WUHU21623XXSP,2013-07-13 13:52:00,
2013-07-13 08:57:00,74.5,64.1,30.16,SE,135,5.1,5.1,70,0.00,,,0.00,WUHU21623XXSP,2013-07-13 13:57:00,
2013-07-13 09:02:00,75.0,64.1,30.16,SE,135,0.0,5.1,69,0.00,,,0.00,WUHU21623XXSP,2013-07-13 14:02:00,
2013-07-13 09:07:00,75.6,64.2,30.15,ESE,112,0.0,3.8,68,0.00,,,0.00,WUHU21623XXSP,2013-07-13 14:07:00,
2013-07-13 09:12:00,75.6,65.1,30.15,ESE,112,0.0,0.0,70,0.00,,,0.00,WUHU21623XXSP,2013-07-13 14:12:00,
2013-07-13 09:17:00,75.7,65.0,30.16,East,90,0.0,0.0,69,0.00,,,0.00,WUHU21623XXSP,2013-07-13 14:17:00,
2013-07-13 09:22:00,75.7,63.6,30.15,SE,135,1.6,1.6,67,0.00,,,0.00,WUHU21623XXSP,2013-07-13 14:22:00,
2013-07-13 09:27:00,75.7,64.4,30.15,SE,135,0.0,1.6,68,0.00,,,0.00,WUHU21623XXSP,2013-07-13 14:27:00,
2013-07-13 09:32:00,76.1,64.8,30.15,East,90,0.0,0.0,68,0.00,,,0.00,WUHU21623XXSP,2013-07-13 14:32:00,
2013-07-13 09:37:00,76.3,64.9,30.15,ESE,112,0.0,0.0,67,0.00,,,0.00,WUHU21623XXSP,2013-07-13 14:37:00,
2013-07-13 09:42:00,76.8,62.6,30.15,East,90,1.3,1.3,62,0.00,,,0.00,WUHU21623XXSP,2013-07-13 14:42:00,
2013-07-13 09:47:00,76.6,62.6,30.15,ESE,112,0.0,1.3,62,0.00,,,0.00,WUHU21623XXSP,2013-07-13 14:47:00,
2013-07-13 09:52:00,76.8,62.8,30.14,ESE,112,0.0,0.0,62,0.00,,,0.00,WUHU21623XXSP,2013-07-13 14:52:00,
2013-07-13 09:57:00,77.2,63.1,30.14,SE,135,0.0,3.8,62,0.00,,,0.00,WUHU21623XXSP,2013-07-13 14:57:00,
2013-07-13 10:02:00,77.2,62.7,30.14,East,90,0.0,3.8,61,0.00,,,0.00,WUHU21623XXSP,2013-07-13 15:02:00,
2013-07-13 10:07:00,77.7,62.8,30.14,ESE,112,0.0,0.0,60,0.00,,,0.00,WUHU21623XXSP,2013-07-13 15:07:00,
2013-07-13 10:12:00,77.5,62.1,30.14,East,90,0.0,0.0,59,0.00,,,0.00,WUHU21623XXSP,2013-07-13 15:12:00,
2013-07-13 10:17:00,77.2,62.7,30.15,East,90,0.0,0.0,61,0.00,,,0.00,WUHU21623XXSP,2013-07-13 15:17:00,
2013-07-13 10:22:00,76.8,61.4,30.15,East,90,0.0,0.0,59,0.00,,,0.00,WUHU21623XXSP,2013-07-13 15:22:00,
2013-07-13 10:27:00,77.5,61.9,30.15,East,90,0.0,0.0,59,0.00,,,0.00,WUHU21623XXSP,2013-07-13 15:27:00,
2013-07-13 10:32:00,77.5,61.9,30.15,ENE,67,0.0,0.0,59,0.00,,,0.00,WUHU21623XXSP,2013-07-13 15:32:00,
2013-07-13 10:37:00,77.4,62.4,30.15,ENE,67,0.0,0.0,60,0.00,,,0.00,WUHU21623XXSP,2013-07-13 15:37:00,
2013-07-13 10:42:00,78.1,63.1,30.15,ENE,67,0.0,0.0,60,0.00,,,0.00,WUHU21623XXSP,2013-07-13 15:42:00,
2013-07-13 10:47:00,78.3,63.3,30.15,East,90,0.0,0.0,60,0.00,,,0.00,WUHU21623XXSP,2013-07-13 15:47:00,
2013-07-13 10:52:00,78.6,63.3,30.14,East,90,0.0,0.0,58,0.00,,,0.00,WUHU21623XXSP,2013-07-13 15:52:00,
2013-07-13 10:57:00,78.6,62.1,30.15,SE,135,6.0,6.0,57,0.00,,,0.00,WUHU21623XXSP,2013-07-13 15:57:00,
2013-07-13 11:02:00,78.6,62.6,30.14,ESE,112,0.0,6.0,58,0.00,,,0.00,WUHU21623XXSP,2013-07-13 16:02:00,
2013-07-13 11:07:00,79.5,64.0,30.14,SSE,157,0.0,6.0,59,0.00,,,0.00,WUHU21623XXSP,2013-07-13 16:07:00,
2013-07-13 11:12:00,79.3,62.8,30.14,ESE,112,1.1,2.7,57,0.00,,,0.00,WUHU21623XXSP,2013-07-13 16:12:00,
2013-07-13 11:17:00,79.2,63.1,30.14,East,90,6.0,6.0,58,0.00,,,0.00,WUHU21623XXSP,2013-07-13 16:17:00,
2013-07-13 11:22:00,79.2,62.8,30.14,ESE,112,6.3,6.3,57,0.00,,,0.00,WUHU21623XXSP,2013-07-13 16:22:00,
2013-07-13 11:27:00,79.3,62.3,30.14,SE,135,6.0,6.3,56,0.00,,,0.00,WUHU21623XXSP,2013-07-13 16:27:00,
2013-07-13 11:32:00,79.5,62.4,30.14,ESE,112,3.8,6.0,56,0.00,,,0.00,WUHU21623XXSP,2013-07-13 16:32:00,
2013-07-13 11:37:00,79.3,62.4,30.14,ENE,67,0.0,3.8,56,0.00,,,0.00,WUHU21623XXSP,2013-07-13 16:37:00,
2013-07-13 11:43:00,79.5,64.0,30.14,SE,135,0.0,0.0,59,0.00,,,0.00,WUHU21623XXSP,2013-07-13 16:43:00,
2013-07-13 11:48:00,81.1,63.4,30.14,SE,135,0.0,2.5,55,0.00,,,0.00,WUHU21623XXSP,2013-07-13 16:48:00,
2013-07-13 11:53:00,81.3,63.4,30.14,SE,135,4.3,4.3,54,0.00,,,0.00,WUHU21623XXSP,2013-07-13 16:53:00,
2013-07-13 11:58:00,81.1,62.8,30.14,SE,135,3.1,4.3,54,0.00,,,0.00,WUHU21623XXSP,2013-07-13 16:58:00,
2013-07-13 12:03:00,80.8,62.5,30.14,ENE,67,7.4,7.4,54,0.00,,,0.00,WUHU21623XXSP,2013-07-13 17:03:00,
2013-07-13 12:08:00,80.8,63.2,30.14,ENE,67,7.4,7.4,54,0.00,,,0.00,WUHU21623XXSP,2013-07-13 17:08:00,
2013-07-13 12:13:00,81.1,63.4,30.14,SSE,157,4.5,7.4,55,0.00,,,0.00,WUHU21623XXSP,2013-07-13 17:13:00,
2013-07-13 12:18:00,81.7,62.8,30.14,SE,135,0.0,7.4,53,0.00,,,0.00,WUHU21623XXSP,2013-07-13 17:18:00,
2013-07-13 12:23:00,81.9,63.5,30.14,East,90,0.2,0.2,54,0.00,,,0.00,WUHU21623XXSP,2013-07-13 17:23:00,
2013-07-13 12:28:00,82.0,62.6,30.14,SE,135,4.3,4.3,52,0.00,,,0.00,WUHU21623XXSP,2013-07-13 17:28:00,
2013-07-13 12:33:00,81.7,62.8,30.14,East,90,0.0,4.3,53,0.00,,,0.00,WUHU21623XXSP,2013-07-13 17:33:00,
2013-07-13 12:38:00,81.5,63.7,30.14,East,90,0.0,3.1,55,0.00,,,0.00,WUHU21623XXSP,2013-07-13 17:38:00,
2013-07-13 12:43:00,82.8,63.8,30.14,SE,135,0.0,5.6,53,0.00,,,0.00,WUHU21623XXSP,2013-07-13 17:43:00,
2013-07-13 12:48:00,82.8,62.2,30.14,ENE,67,6.0,6.0,50,0.00,,,0.00,WUHU21623XXSP,2013-07-13 17:48:00,
2013-07-13 12:53:00,82.2,62.2,30.14,SE,135,0.0,6.0,51,0.00,,,0.00,WUHU21623XXSP,2013-07-13 17:53:00,
2013-07-13 12:59:00,81.7,62.3,30.13,ENE,67,6.9,6.9,52,0.00,,,0.00,WUHU21623XXSP,2013-07-13 17:59:00,
2013-07-13 13:04:00,81.5,62.1,30.13,ENE,67,0.2,6.9,52,0.00,,,0.00,WUHU21623XXSP,2013-07-13 18:04:00,
2013-07-13 13:09:00,81.7,62.8,30.13,ESE,112,4.9,7.2,53,0.00,,,0.00,WUHU21623XXSP,2013-07-13 18:09:00,
2013-07-13 13:14:00,81.3,62.3,30.13,ESE,112,0.0,7.2,53,0.00,,,0.00,WUHU21623XXSP,2013-07-13 18:14:00,
2013-07-13 13:19:00,82.0,63.1,30.13,SE,135,2.9,7.8,53,0.00,,,0.00,WUHU21623XXSP,2013-07-13 18:19:00,
2013-07-13 13:24:00,82.9,63.5,30.13,SSE,157,8.7,8.7,52,0.00,,,0.00,WUHU21623XXSP,2013-07-13 18:24:00,
2013-07-13 13:29:00,83.1,63.5,30.13,SE,135,2.0,8.7,52,0.00,,,0.00,WUHU21623XXSP,2013-07-13 18:29:00,
2013-07-13 13:34:00,83.3,63.3,30.13,ESE,112,7.4,8.7,51,0.00,,,0.00,WUHU21623XXSP,2013-07-13 18:34:00,
2013-07-13 13:39:00,82.8,62.8,30.12,ESE,112,0.0,7.4,51,0.00,,,0.00,WUHU21623XXSP,2013-07-13 18:39:00,
2013-07-13 13:44:00,82.8,62.2,30.12,ESE,112,0.0,0.0,50,0.00,,,0.00,WUHU21623XXSP,2013-07-13 18:44:00,
2013-07-13 13:49:00,83.1,63.1,30.12,ESE,112,0.0,3.4,51,0.00,,,0.00,WUHU21623XXSP,2013-07-13 18:49:00,
2013-07-13 13:54:00,83.5,62.3,30.12,ESE,112,8.9,8.9,50,0.00,,,0.00,WUHU21623XXSP,2013-07-13 18:54:00,
2013-07-13 13:59:00,83.1,62.6,30.13,SE,135,0.0,8.9,50,0.00,,,0.00,WUHU21623XXSP,2013-07-13 18:59:00,
2013-07-13 14:04:00,83.5,63.1,30.12,SE,135,0.0,8.9,52,0.00,,,0.00,WUHU21623XXSP,2013-07-13 19:04:00,
2013-07-13 14:09:00,83.3,62.2,30.12,ENE,67,5.8,5.8,49,0.00,,,0.00,WUHU21623XXSP,2013-07-13 19:09:00,
2013-07-13 14:14:00,83.5,63.3,30.11,ENE,67,5.8,5.8,50,0.00,,,0.00,WUHU21623XXSP,2013-07-13 19:14:00,
2013-07-13 14:19:00,83.7,62.5,30.12,SE,135,0.0,7.6,49,0.00,,,0.00,WUHU21623XXSP,2013-07-13 19:19:00,
2013-07-13 14:24:00,83.5,61.7,30.12,East,90,0.0,7.6,48,0.00,,,0.00,WUHU21623XXSP,2013-07-13 19:24:00,
2013-07-13 14:29:00,83.5,62.3,30.12,ENE,67,0.0,1.8,49,0.00,,,0.00,WUHU21623XXSP,2013-07-13 19:29:00,
2013-07-13 14:34:00,84.0,63.0,30.12,ENE,67,6.5,6.5,50,0.00,,,0.00,WUHU21623XXSP,2013-07-13 19:34:00,
2013-07-13 14:39:00,83.5,62.3,30.12,ENE,67,6.0,8.1,50,0.00,,,0.00,WUHU21623XXSP,2013-07-13 19:39:00,
2013-07-13 14:44:00,83.7,62.5,30.12,ESE,112,6.3,8.1,49,0.00,,,0.00,WUHU21623XXSP,2013-07-13 19:44:00,
2013-07-13 14:49:00,83.7,62.5,30.12,WSW,247,0.0,6.3,49,0.00,,,0.00,WUHU21623XXSP,2013-07-13 19:49:00,
2013-07-13 14:54:00,84.0,62.9,30.12,WSW,247,4.0,5.8,49,0.00,,,0.00,WUHU21623XXSP,2013-07-13 19:54:00,
2013-07-13 14:59:00,84.2,63.7,30.12,East,90,5.6,5.6,50,0.00,,,0.00,WUHU21623XXSP,2013-07-13 19:59:00,
2013-07-13 15:04:00,84.0,62.2,30.11,WSW,247,0.0,5.6,48,0.00,,,0.00,WUHU21623XXSP,2013-07-13 20:04:00,
2013-07-13 15:09:00,84.2,63.5,30.11,WSW,247,0.0,3.1,51,0.00,,,0.00,WUHU21623XXSP,2013-07-13 20:09:00,
2013-07-13 15:14:00,84.7,64.2,30.11,WSW,247,0.0,0.0,50,0.00,,,0.00,WUHU21623XXSP,2013-07-13 20:14:00,
2013-07-13 15:19:00,84.9,63.7,30.11,WSW,247,0.0,0.0,49,0.00,,,0.00,WUHU21623XXSP,2013-07-13 20:19:00,
2013-07-13 15:24:00,84.4,63.5,30.12,WSW,247,0.0,0.0,49,0.00,,,0.00,WUHU21623XXSP,2013-07-13 20:24:00,
2013-07-13 15:29:00,84.6,63.8,30.12,WSW,247,0.0,0.0,50,0.00,,,0.00,WUHU21623XXSP,2013-07-13 20:29:00,
2013-07-13 15:34:00,84.9,64.3,30.12,WSW,247,0.0,0.0,50,0.00,,,0.00,WUHU21623XXSP,2013-07-13 20:34:00,
2013-07-13 15:39:00,84.9,64.3,30.12,WSW,247,0.0,0.0,50,0.00,,,0.00,WUHU21623XXSP,2013-07-13 20:39:00,
2013-07-13 15:44:00,84.7,63.5,30.12,ESE,112,0.0,0.0,50,0.00,,,0.00,WUHU21623XXSP,2013-07-13 20:44:00,
2013-07-13 15:49:00,84.4,63.0,30.12,ESE,112,6.7,6.7,50,0.00,,,0.00,WUHU21623XXSP,2013-07-13 20:49:00,
2013-07-13 15:54:00,84.7,64.2,30.12,ESE,112,8.7,8.7,50,0.00,,,0.00,WUHU21623XXSP,2013-07-13 20:54:00,
2013-07-13 15:59:00,84.7,64.2,30.12,SE,135,4.3,8.7,50,0.00,,,0.00,WUHU21623XXSP,2013-07-13 20:59:00,
2013-07-13 16:05:00,84.4,63.8,30.11,SE,135,0.0,6.9,50,0.00,,,0.00,WUHU21623XXSP,2013-07-13 21:05:00,
2013-07-13 16:10:00,84.4,63.7,30.11,WSW,247,4.5,6.9,50,0.00,,,0.00,WUHU21623XXSP,2013-07-13 21:10:00,
2013-07-13 16:15:00,84.4,64.4,30.11,WSW,247,0.0,6.9,50,0.00,,,0.00,WUHU21623XXSP,2013-07-13 21:15:00,
2013-07-13 16:20:00,84.6,63.4,30.11,ESE,112,5.6,9.6,50,0.00,,,0.00,WUHU21623XXSP,2013-07-13 21:20:00,
2013-07-13 16:25:00,84.2,64.2,30.11,East,90,5.8,9.6,51,0.00,,,0.00,WUHU21623XXSP,2013-07-13 21:25:00,
2013-07-13 16:30:00,83.8,63.8,30.11,WSW,247,0.0,6.3,51,0.00,,,0.00,WUHU21623XXSP,2013-07-13 21:30:00,
2013-07-13 16:35:00,84.0,64.0,30.11,WSW,247,8.5,8.9,51,0.00,,,0.00,WUHU21623XXSP,2013-07-13 21:35:00,
2013-07-13 16:40:00,84.4,63.8,30.11,WSW,247,6.3,8.9,50,0.00,,,0.00,WUHU21623XXSP,2013-07-13 21:40:00,
2013-07-13 16:45:00,84.6,64.5,30.11,WSW,247,0.0,6.3,51,0.00,,,0.00,WUHU21623XXSP,2013-07-13 21:45:00,
2013-07-13 16:50:00,84.2,63.7,30.10,WSW,247,0.0,7.4,50,0.00,,,0.00,WUHU21623XXSP,2013-07-13 21:50:00,
2013-07-13 16:55:00,84.2,64.2,30.10,WSW,247,0.0,7.4,50,0.00,,,0.00,WUHU21623XXSP,2013-07-13 21:55:00,
2013-07-13 17:00:00,84.4,63.8,30.11,WSW,247,4.7,6.0,50,0.00,,,0.00,WUHU21623XXSP,2013-07-13 22:00:00,
2013-07-13 17:05:00,84.4,63.8,30.10,WSW,247,7.6,7.6,50,0.00,,,0.00,WUHU21623XXSP,2013-07-13 22:05:00,
2013-07-13 17:10:00,84.2,64.2,30.11,WSW,247,2.5,7.6,51,0.00,,,0.00,WUHU21623XXSP,2013-07-13 22:10:00,
2013-07-13 17:15:00,84.4,64.4,30.10,WSW,247,5.4,5.4,51,0.00,,,0.00,WUHU21623XXSP,2013-07-13 22:15:00,
2013-07-13 17:20:00,84.4,64.5,30.10,WSW,247,3.6,5.4,51,0.00,,,0.00,WUHU21623XXSP,2013-07-13 22:20:00,
2013-07-13 17:25:00,84.0,64.0,30.10,WSW,247,7.4,7.4,51,0.00,,,0.00,WUHU21623XXSP,2013-07-13 22:25:00,
2013-07-13 17:30:00,84.0,64.5,30.10,WSW,247,0.0,7.4,52,0.00,,,0.00,WUHU21623XXSP,2013-07-13 22:30:00,
2013-07-13 17:35:00,84.0,64.0,30.10,WSW,247,0.0,2.9,51,0.00,,,0.00,WUHU21623XXSP,2013-07-13 22:35:00,
2013-07-13 17:40:00,84.0,64.0,30.10,WSW,247,0.0,0.0,51,0.00,,,0.00,WUHU21623XXSP,2013-07-13 22:40:00,
2013-07-13 17:45:00,84.0,64.5,30.10,WSW,247,0.0,0.0,52,0.00,,,0.00,WUHU21623XXSP,2013-07-13 22:45:00,
2013-07-13 17:50:00,83.8,63.8,30.09,WSW,247,2.0,2.0,51,0.00,,,0.00,WUHU21623XXSP,2013-07-13 22:50:00,
2013-07-13 17:55:00,83.8,64.4,30.09,WSW,247,7.8,7.8,52,0.00,,,0.00,WUHU21623XXSP,2013-07-13 22:55:00,
2013-07-13 18:00:00,83.8,64.4,30.10,WSW,247,0.0,7.8,52,0.00,,,0.00,WUHU21623XXSP,2013-07-13 23:00:00,
2013-07-13 18:05:00,84.0,64.5,30.10,WSW,247,0.0,0.0,52,0.00,,,0.00,WUHU21623XXSP,2013-07-13 23:05:00,
2013-07-13 18:10:00,84.0,64.5,30.10,WSW,247,2.2,2.7,52,0.00,,,0.00,WUHU21623XXSP,2013-07-13 23:10:00,
2013-07-13 18:15:00,84.0,65.1,30.09,WSW,247,0.0,2.7,53,0.00,,,0.00,WUHU21623XXSP,2013-07-13 23:15:00,
2013-07-13 18:20:00,83.8,64.4,30.10,WSW,247,5.1,5.4,52,0.00,,,0.00,WUHU21623XXSP,2013-07-13 23:20:00,
2013-07-13 18:25:00,83.7,64.7,30.10,WSW,247,4.7,7.2,53,0.00,,,0.00,WUHU21623XXSP,2013-07-13 23:25:00,
2013-07-13 18:30:00,83.3,64.3,30.10,WSW,247,0.0,7.2,53,0.00,,,0.00,WUHU21623XXSP,2013-07-13 23:30:00,
2013-07-13 18:35:00,83.3,64.9,30.10,WSW,247,0.0,4.7,54,0.00,,,0.00,WUHU21623XXSP,2013-07-13 23:35:00,
2013-07-13 18:40:00,83.3,65.0,30.10,WSW,247,7.6,7.6,53,0.00,,,0.00,WUHU21623XXSP,2013-07-13 23:40:00,
2013-07-13 18:45:00,82.9,64.5,30.10,ESE,112,0.0,7.6,55,0.00,,,0.00,WUHU21623XXSP,2013-07-13 23:45:00,
2013-07-13 18:50:00,82.9,65.0,30.10,WSW,247,1.1,6.3,55,0.00,,,0.00,WUHU21623XXSP,2013-07-13 23:50:00,
2013-07-13 18:55:00,82.9,65.0,30.10,WSW,247,0.0,6.3,55,0.00,,,0.00,WUHU21623XXSP,2013-07-13 23:55:00,
2013-07-13 19:00:00,82.8,64.8,30.10,WSW,247,2.0,4.7,55,0.00,,,0.00,WUHU21623XXSP,2013-07-14 00:00:00,
2013-07-13 19:05:00,82.6,65.2,30.10,WSW,247,1.3,2.0,56,0.00,,,0.00,WUHU21623XXSP,2013-07-14 00:05:00,
2013-07-13 19:10:00,82.6,65.2,30.10,WSW,247,0.0,1.3,56,0.00,,,0.00,WUHU21623XXSP,2013-07-14 00:10:00,
2013-07-13 19:15:00,82.2,65.4,30.10,ESE,112,0.0,0.0,57,0.00,,,0.00,WUHU21623XXSP,2013-07-14 00:15:00,
2013-07-13 19:20:00,82.2,65.4,30.10,WSW,247,0.0,0.0,57,0.00,,,0.00,WUHU21623XXSP,2013-07-14 00:20:00,
2013-07-13 19:25:00,82.0,65.7,30.10,WSW,247,0.0,0.0,58,0.00,,,0.00,WUHU21623XXSP,2013-07-14 00:25:00,
2013-07-13 19:30:00,81.7,65.9,30.10,ESE,112,0.0,1.8,59,0.00,,,0.00,WUHU21623XXSP,2013-07-14 00:30:00,
2013-07-13 19:35:00,81.3,65.6,30.10,ESE,112,0.0,1.8,59,0.00,,,0.00,WUHU21623XXSP,2013-07-14 00:35:00,
2013-07-13 19:40:00,81.1,65.4,30.10,ESE,112,0.0,2.9,59,0.00,,,0.00,WUHU21623XXSP,2013-07-14 00:40:00,
2013-07-13 19:45:00,81.0,65.8,30.10,ESE,112,0.0,2.9,60,0.00,,,0.00,WUHU21623XXSP,2013-07-14 00:45:00,
2013-07-13 19:50:00,80.6,65.5,30.10,ESE,112,0.0,0.0,60,0.00,,,0.00,WUHU21623XXSP,2013-07-14 00:50:00,
2013-07-13 19:55:00,80.1,65.8,30.10,ESE,112,0.0,0.0,62,0.00,,,0.00,WUHU21623XXSP,2013-07-14 00:55:00,
2013-07-13 20:00:00,79.3,65.8,30.11,ESE,112,0.0,0.0,63,0.00,,,0.00,WUHU21623XXSP,2013-07-14 01:00:00,
2013-07-13 20:05:00,79.0,65.3,30.11,ESE,112,0.0,0.0,63,0.00,,,0.00,WUHU21623XXSP,2013-07-14 01:05:00,
2013-07-13 20:10:00,78.6,65.4,30.11,ESE,112,0.0,0.0,64,0.00,,,0.00,WUHU21623XXSP,2013-07-14 01:10:00,
2013-07-13 20:15:00,78.1,65.5,30.11,ESE,112,0.0,0.0,65,0.00,,,0.00,WUHU21623XXSP,2013-07-14 01:15:00,
2013-07-13 20:20:00,77.7,65.4,30.11,ESE,112,0.0,0.0,66,0.00,,,0.00,WUHU21623XXSP,2013-07-14 01:20:00,
2013-07-13 20:25:00,77.4,65.5,30.11,ESE,112,0.0,0.0,67,0.00,,,0.00,WUHU21623XXSP,2013-07-14 01:25:00,
2013-07-13 20:30:00,76.8,65.0,30.11,ESE,112,0.0,0.0,67,0.00,,,0.00,WUHU21623XXSP,2013-07-14 01:30:00,
2013-07-13 20:35:00,76.6,65.3,30.11,ESE,112,0.0,0.0,68,0.00,,,0.00,WUHU21623XXSP,2013-07-14 01:35:00,
2013-07-13 20:40:00,75.9,64.6,30.11,ESE,112,0.0,0.0,68,0.00,,,0.00,WUHU21623XXSP,2013-07-14 01:40:00,
2013-07-13 20:45:00,75.7,64.6,30.11,ESE,112,0.0,0.0,69,0.00,,,0.00,WUHU21623XXSP,2013-07-14 01:45:00,
2013-07-13 20:50:00,75.7,64.8,30.11,ESE,112,0.0,0.0,69,0.00,,,0.00,WUHU21623XXSP,2013-07-14 01:50:00,
2013-07-13 20:55:00,75.4,64.9,30.11,ESE,112,0.0,0.0,70,0.00,,,0.00,WUHU21623XXSP,2013-07-14 01:55:00,
2013-07-13 21:00:00,75.0,65.3,30.12,ESE,112,0.0,0.0,71,0.00,,,0.00,WUHU21623XXSP,2013-07-14 02:00:00,
2013-07-13 21:05:00,74.8,64.8,30.12,East,90,0.0,0.0,71,0.00,,,0.00,WUHU21623XXSP,2013-07-14 02:05:00,
2013-07-13 21:10:00,74.1,65.1,30.12,NE,45,0.0,2.2,74,0.00,,,0.00,WUHU21623XXSP,2013-07-14 02:10:00,
2013-07-13 21:15:00,73.9,65.2,30.13,NE,45,0.0,2.2,74,0.00,,,0.00,WUHU21623XXSP,2013-07-14 02:15:00,
2013-07-13 21:20:00,73.6,65.4,30.13,NE,45,0.0,0.0,75,0.00,,,0.00,WUHU21623XXSP,2013-07-14 02:20:00,
2013-07-13 21:25:00,73.0,65.0,30.13,NE,45,0.0,0.0,76,0.00,,,0.00,WUHU21623XXSP,2013-07-14 02:25:00,
2013-07-13 21:30:00,72.7,64.7,30.13,NE,45,0.0,0.0,76,0.00,,,0.00,WUHU21623XXSP,2013-07-14 02:30:00,
2013-07-13 21:35:00,72.5,64.5,30.13,NE,45,0.0,0.0,76,0.00,,,0.00,WUHU21623XXSP,2013-07-14 02:35:00,
2013-07-13 21:41:00,72.1,64.5,30.14,NE,45,0.0,0.0,78,0.00,,,0.00,WUHU21623XXSP,2013-07-14 02:41:00,
2013-07-13 21:46:00,71.8,64.7,30.14,NE,45,0.0,0.0,78,0.00,,,0.00,WUHU21623XXSP,2013-07-14 02:46:00,
2013-07-13 21:51:00,71.6,64.9,30.14,NE,45,0.0,0.0,79,0.00,,,0.00,WUHU21623XXSP,2013-07-14 02:51:00,
2013-07-13 21:56:00,71.4,64.6,30.14,North,0,0.0,0.0,79,0.00,,,0.00,WUHU21623XXSP,2013-07-14 02:56:00,
2013-07-13 22:01:00,70.9,64.7,30.14,NNE,22,0.0,0.0,81,0.00,,,0.00,WUHU21623XXSP,2013-07-14 03:01:00,
2013-07-13 22:06:00,70.5,64.4,30.14,NNE,22,1.1,1.1,81,0.00,,,0.00,WUHU21623XXSP,2013-07-14 03:06:00,
2013-07-13 22:11:00,70.3,64.5,30.14,NNE,22,0.0,1.1,82,0.00,,,0.00,WUHU21623XXSP,2013-07-14 03:11:00,
2013-07-13 22:16:00,70.0,64.2,30.14,NNE,22,0.0,0.0,82,0.00,,,0.00,WUHU21623XXSP,2013-07-14 03:16:00,
2013-07-13 22:21:00,70.0,64.2,30.14,NNE,22,0.0,0.0,82,0.00,,,0.00,WUHU21623XXSP,2013-07-14 03:21:00,
2013-07-13 22:26:00,69.6,64.2,30.14,NNE,22,0.0,0.0,83,0.00,,,0.00,WUHU21623XXSP,2013-07-14 03:26:00,
2013-07-13 22:31:00,69.6,64.2,30.14,NNE,22,0.0,0.0,83,0.00,,,0.00,WUHU21623XXSP,2013-07-14 03:31:00,
2013-07-13 22:36:00,69.4,64.3,30.15,NNE,22,0.0,0.0,84,0.00,,,0.00,WUHU21623XXSP,2013-07-14 03:36:00,
2013-07-13 22:41:00,69.4,64.7,30.15,NNE,22,0.0,0.0,85,0.00,,,0.00,WUHU21623XXSP,2013-07-14 03:41:00,
2013-07-13 22:46:00,69.3,64.5,30.14,NNE,22,0.0,0.0,85,0.00,,,0.00,WUHU21623XXSP,2013-07-14 03:46:00,
2013-07-13 22:51:00,69.1,64.3,30.14,NNE,22,0.0,0.0,85,0.00,,,0.00,WUHU21623XXSP,2013-07-14 03:51:00,
2013-07-13 22:56:00,69.1,64.7,30.14,NNE,22,0.0,0.0,86,0.00,,,0.00,WUHU21623XXSP,2013-07-14 03:56:00,
2013-07-13 23:01:00,69.3,64.8,30.14,NNE,22,0.0,0.0,86,0.00,,,0.00,WUHU21623XXSP,2013-07-14 04:01:00,
2013-07-13 23:06:00,69.4,64.8,30.14,NNE,22,0.0,0.0,86,0.00,,,0.00,WUHU21623XXSP,2013-07-14 04:06:00,
2013-07-13 23:11:00,69.4,65.0,30.14,NNE,22,0.0,0.0,86,0.00,,,0.00,WUHU21623XXSP,2013-07-14 04:11:00,
2013-07-13 23:16:00,69.4,65.0,30.14,NNE,22,0.0,0.0,86,0.00,,,0.00,WUHU21623XXSP,2013-07-14 04:16:00,
2013-07-13 23:21:00,69.4,65.0,30.15,NNE,22,0.0,0.0,86,0.00,,,0.00,WUHU21623XXSP,2013-07-14 04:21:00,
2013-07-13 23:26:00,69.4,65.0,30.14,NNE,22,1.6,1.6,86,0.00,,,0.00,WUHU21623XXSP,2013-07-14 04:26:00,
2013-07-13 23:31:00,69.4,65.0,30.14,NE,45,0.0,1.6,86,0.00,,,0.00,WUHU21623XXSP,2013-07-14 04:31:00,
2013-07-13 23:36:00,69.4,65.0,30.14,NNE,22,0.0,0.0,86,0.00,,,0.00,WUHU21623XXSP,2013-07-14 04:36:00,
2013-07-13 23:41:00,69.4,65.0,30.14,NNE,22,0.0,0.0,86,0.00,,,0.00,WUHU21623XXSP,2013-07-14 04:41:00,
2013-07-13 23:46:00,69.4,65.4,30.14,NNE,22,0.0,0.0,87,0.00,,,0.00,WUHU21623XXSP,2013-07-14 04:46:00,
2013-07-13 23:51:00,69.1,65.0,30.14,NNE,22,0.0,0.0,87,0.00,,,0.00,WUHU21623XXSP,2013-07-14 04:51:00,
2013-07-13 23:56:00,69.1,65.0,30.14,NE,45,0.0,0.0,87,0.00,,,0.00,WUHU21623XXSP,2013-07-14 04:56:00,